Time;durP1;ratioP1;P1;durP2;ratioP2;P2;SDS_P1;SDS_P2;PMS_P1;PMS_P2;Temp;Humidity;BMP_temperature;BMP_pressure;BME280_temperature;BME280_humidity;BME280_pressure;Samples;Min_cycle;Max_cycle;Signal;HPM_P1;HPM_P2
2022/06/02 00:01:33;;;;;;;;;;;22.70;58.90;;;;;;4925833;29;20032;-84
2022/06/02 00:04:10;;;;;;;5.43;3.70;;;22.60;59.20;;;;;;4925064;29;19907;-96
2022/06/02 00:06:45;;;;;;;5.57;4.10;;;22.50;60.00;;;;;;4921650;29;20677;-87
2022/06/02 00:09:25;;;;;;;5.10;3.88;;;22.10;61.70;;;;;;4920427;29;20024;-87
2022/06/02 00:15:52;;;;;;;5.45;3.72;;;21.90;61.20;;;;;;4977171;28;20053;-85
2022/06/02 00:18:21;;;;;;;4.30;3.40;;;21.50;62.00;;;;;;4953009;29;20015;-85
2022/06/02 00:21:19;;;;;;;6.40;4.60;;;21.60;61.70;;;;;;4958129;29;20031;-96
2022/06/02 00:27:47;;;;;;;6.72;4.60;;;22.30;60.00;;;;;;4897331;29;20531;-96
2022/06/02 00:30:54;;;;;;;5.25;4.00;;;22.20;59.20;;;;;;4880999;29;20072;-84
2022/06/02 00:33:28;;;;;;;4.85;3.78;;;22.20;58.70;;;;;;4904287;29;20377;-95
2022/06/02 00:35:57;;;;;;;5.07;3.28;;;22.30;58.40;;;;;;4918629;28;20092;-93
2022/06/02 00:38:36;;;;;;;4.57;3.25;;;22.40;58.50;;;;;;4916753;29;20040;-92
2022/06/02 00:41:15;;;;;;;4.82;3.70;;;22.20;59.20;;;;;;4917939;29;20403;-92
2022/06/02 00:43:50;;;;;;;4.18;3.50;;;22.20;59.00;;;;;;4915635;29;20036;-87
2022/06/02 00:46:47;;;;;;;5.93;4.07;;;22.00;59.60;;;;;;4906360;29;20504;-86
2022/06/02 00:49:34;;;;;;;5.60;4.43;;;22.10;59.50;;;;;;4897664;29;20032;-84
2022/06/02 00:52:25;;;;;;;5.10;3.92;;;22.30;59.10;;;;;;4916219;29;20035;-83
2022/06/02 00:58:22;;;;;;;5.63;4.10;;;22.10;58.80;;;;;;4897664;29;20043;-85
2022/06/02 01:01:13;;;;;;;5.15;4.30;;;21.90;58.80;;;;;;4896808;29;20032;-83
2022/06/02 01:03:47;;;;;;;5.47;4.45;;;21.90;59.20;;;;;;4928126;29;20031;-85
2022/06/02 01:06:40;;;;;;;5.57;4.00;;;21.90;59.60;;;;;;4957231;28;20086;-94
2022/06/02 01:09:29;;;;;;;5.03;4.05;;;22.00;59.60;;;;;;4939771;29;20035;-84
2022/06/02 01:12:25;;;;;;;5.57;4.70;;;22.00;60.00;;;;;;4956065;29;20082;-83
2022/06/02 01:15:19;;;;;;;7.05;5.18;;;21.90;59.70;;;;;;4933319;29;20043;-84
2022/06/02 01:18:05;;;;;;;4.70;3.50;;;21.80;59.30;;;;;;4940998;29;20464;-85
2022/06/02 01:21:05;;;;;;;7.75;4.22;;;21.50;61.40;;;;;;4929827;29;20043;-84
2022/06/02 01:24:08;;;;;;;5.10;4.03;;;21.60;61.00;;;;;;4922353;29;20483;-83
2022/06/02 01:26:48;;;;;;;5.85;4.32;;;21.60;60.30;;;;;;4940870;29;20039;-83
2022/06/02 01:29:35;;;;;;;8.35;4.00;;;21.80;60.00;;;;;;4941514;29;20019;-83
2022/06/02 01:32:10;;;;;;;6.05;3.90;;;21.80;59.30;;;;;;4941616;29;20042;-87
2022/06/02 01:35:02;;;;;;;6.28;4.65;;;21.60;59.60;;;;;;4957764;29;20382;-82
2022/06/02 01:37:50;;;;;;;5.53;4.03;;;21.50;60.10;;;;;;4941583;29;20049;-90
2022/06/02 01:40:37;;;;;;;5.88;4.40;;;21.50;60.30;;;;;;4941245;29;20118;-83
2022/06/02 01:43:08;;;;;;;4.90;3.90;;;21.40;60.20;;;;;;4958459;29;20063;-85
2022/06/02 01:45:53;;;;;;;6.35;4.00;;;21.30;60.50;;;;;;4958300;29;20374;-95
2022/06/02 01:48:49;;;;;;;5.63;4.10;;;21.30;60.70;;;;;;4941515;29;20027;-85
2022/06/02 01:51:14;;;;;;;6.15;3.80;;;21.40;60.40;;;;;;4947933;29;20038;-86
2022/06/02 01:54:02;;;;;;;6.18;4.10;;;21.60;60.30;;;;;;4938930;29;20031;-85
2022/06/02 01:56:50;;;;;;;7.13;4.57;;;21.80;60.00;;;;;;4949490;29;20024;-85
2022/06/02 01:59:48;;;;;;;6.00;4.10;;;21.90;59.80;;;;;;4941024;29;20032;-87
2022/06/02 02:02:36;;;;;;;7.85;4.32;;;22.10;59.90;;;;;;4923429;29;20051;-96
2022/06/02 02:27:26;;;;;;;6.50;3.85;;;22.60;59.70;;;;;;5205935;23;20058;-86
2022/06/02 02:30:12;;;;;;;5.88;3.90;;;22.50;59.80;;;;;;4925182;29;20031;-83
2022/06/02 02:35:48;;;;;;;5.82;4.40;;;22.50;60.40;;;;;;5172616;23;20072;-84
2022/06/02 02:38:29;;;;;;;6.30;3.80;;;22.40;60.00;;;;;;4938579;29;20051;-79
2022/06/02 02:41:01;;;;;;;5.25;3.53;;;22.40;60.30;;;;;;4957817;28;20525;-84
2022/06/02 02:43:50;;;;;;;5.90;3.53;;;22.30;60.60;;;;;;4959618;28;20125;-78
2022/06/02 02:46:40;;;;;;;6.90;3.70;;;22.00;60.90;;;;;;4976812;28;20049;-83
2022/06/02 02:49:53;;;;;;;5.10;3.10;;;21.80;60.60;;;;;;4953455;29;20019;-77
2022/06/02 02:52:27;;;;;;;6.82;2.90;;;21.90;60.40;;;;;;4864228;29;20133;-86
2022/06/02 02:55:09;;;;;;;4.18;2.90;;;22.00;60.00;;;;;;4880131;29;20599;-81
2022/06/02 02:57:57;;;;;;;5.05;3.38;;;22.10;59.10;;;;;;4879525;29;20107;-78
2022/06/02 03:00:39;;;;;;;3.60;2.80;;;22.30;60.10;;;;;;4959980;23;20055;-85
2022/06/02 03:03:17;;;;;;;6.03;3.10;;;22.70;60.00;;;;;;4937805;29;20028;-86
2022/06/02 03:06:09;;;;;;;4.10;2.97;;;22.40;59.90;;;;;;4936992;29;20471;-87
2022/06/02 03:08:43;;;;;;;4.85;3.20;;;22.10;60.10;;;;;;4953045;29;20024;-87
2022/06/02 03:11:29;;;;;;;4.90;2.97;;;22.10;60.20;;;;;;4936435;29;20423;-84
2022/06/02 03:14:07;;;;;;;4.40;3.28;;;22.40;59.90;;;;;;4879795;29;20049;-85
2022/06/02 03:16:37;;;;;;;4.28;2.90;;;22.50;59.20;;;;;;4879351;29;20439;-85
2022/06/02 03:19:16;;;;;;;4.75;2.90;;;22.70;59.30;;;;;;4936861;23;20345;-81
2022/06/02 03:22:04;;;;;;;4.45;3.05;;;23.00;59.50;;;;;;4968186;28;20035;-82
2022/06/02 03:25:20;;;;;;;6.40;3.50;;;23.10;58.60;;;;;;4938231;29;20027;-81
2022/06/02 03:27:55;;;;;;;4.72;3.20;;;23.10;58.80;;;;;;4864597;29;20035;-90
2022/06/02 03:30:28;;;;;;;5.32;3.75;;;23.00;59.60;;;;;;4873813;29;20048;-89
2022/06/02 03:33:12;;;;;;;10.32;3.63;;;23.30;59.40;;;;;;4882788;29;20468;-86
2022/06/02 03:35:48;;;;;;;6.47;3.40;;;23.20;58.90;;;;;;4882412;29;20037;-85
2022/06/02 03:38:36;;;;;;;6.72;3.50;;;23.20;59.60;;;;;;4882255;29;20084;-78
2022/06/02 03:41:11;;;;;;;5.63;3.40;;;23.20;59.40;;;;;;4896431;29;20072;-91
2022/06/02 03:44:06;;;;;;;7.20;3.60;;;23.30;60.10;;;;;;4896959;29;20041;-83
2022/06/02 03:46:34;;;;;;;5.57;3.92;;;23.20;60.80;;;;;;4878898;29;20033;-83
2022/06/02 03:49:08;;;;;;;5.28;3.78;;;23.40;60.50;;;;;;4878639;29;20491;-82
2022/06/02 03:52:00;;;;;;;6.53;3.80;;;23.60;60.10;;;;;;4879550;29;20033;-86
2022/06/02 03:54:40;;;;;;;5.50;4.00;;;23.90;59.80;;;;;;4866206;29;20082;-89
2022/06/02 03:57:42;;;;;;;6.10;4.32;;;24.00;60.00;;;;;;4898314;29;20033;-83
2022/06/02 04:00:20;;;;;;;5.07;4.15;;;24.20;59.70;;;;;;4897480;29;20037;-88
2022/06/02 04:03:05;;;;;;;7.47;4.20;;;24.20;60.00;;;;;;4944928;29;20039;-87
2022/06/02 04:05:53;;;;;;;6.53;4.00;;;24.30;59.80;;;;;;4954668;28;20069;-92
2022/06/02 04:08:38;;;;;;;5.82;4.25;;;24.10;60.50;;;;;;4954844;29;20024;-81
2022/06/02 04:11:14;;;;;;;5.70;4.35;;;23.80;61.00;;;;;;4955925;28;20426;-80
2022/06/02 04:14:01;;;;;;;5.70;4.28;;;23.90;60.90;;;;;;4955641;28;20437;-79
2022/06/02 04:17:04;;;;;;;7.35;4.57;;;23.90;61.20;;;;;;4954318;28;20479;-80
2022/06/02 04:23:17;;;;;;;5.97;4.53;;;24.00;61.00;;;;;;4954354;29;20551;-81
2022/06/02 04:26:20;;;;;;;6.10;4.70;;;24.00;61.00;;;;;;4954466;29;20027;-83
2022/06/02 04:28:57;;;;;;;5.47;4.43;;;24.00;60.80;;;;;;4955644;28;20035;-83
2022/06/02 04:31:32;;;;;;;7.57;5.00;;;23.40;61.60;;;;;;4942858;28;20031;-82
2022/06/02 04:34:37;;;;;;;7.75;5.63;;;23.20;63.00;;;;;;4944401;29;20057;-81
2022/06/02 04:37:08;;;;;;;6.25;4.43;;;23.50;62.20;;;;;;4955156;28;20504;-79
2022/06/02 04:39:45;;;;;;;5.78;4.95;;;23.60;62.60;;;;;;4954990;29;20043;-80
2022/06/02 04:42:44;;;;;;;6.38;5.00;;;23.60;62.60;;;;;;4953441;29;20074;-80
2022/06/02 04:45:34;;;;;;;6.80;5.05;;;23.40;63.00;;;;;;4954483;28;20026;-78
2022/06/02 04:48:03;;;;;;;6.70;4.70;;;23.10;63.60;;;;;;4953917;29;20027;-86
2022/06/02 04:50:49;;;;;;;5.95;4.85;;;22.90;63.80;;;;;;4954073;29;20435;-81
2022/06/02 04:53:34;;;;;;;8.68;4.95;;;23.20;63.40;;;;;;4953326;29;20051;-81
2022/06/02 04:56:27;;;;;;;5.85;4.82;;;23.50;62.60;;;;;;4955855;28;20110;-81
2022/06/02 04:59:07;;;;;;;5.45;4.30;;;23.50;62.80;;;;;;4957337;29;20494;-83
2022/06/02 05:02:03;;;;;;;5.28;4.68;;;23.20;63.20;;;;;;4957479;29;20070;-92
2022/06/02 05:05:01;;;;;;;6.10;4.60;;;23.00;64.00;;;;;;4958373;29;20035;-82
2022/06/02 05:07:50;;;;;;;7.25;5.10;;;23.20;63.90;;;;;;4957788;29;20106;-82
2022/06/02 05:10:47;;;;;;;6.65;5.07;;;23.60;63.40;;;;;;4956912;28;20024;-83
2022/06/02 05:13:31;;;;;;;6.43;4.63;;;23.80;62.90;;;;;;4956695;29;20035;-80
2022/06/02 05:16:13;;;;;;;6.03;4.80;;;24.00;62.40;;;;;;4958367;29;20102;-80
2022/06/02 05:18:52;;;;;;;7.05;5.05;;;24.10;62.30;;;;;;4957448;29;20019;-80
2022/06/02 05:21:43;;;;;;;7.20;4.75;;;24.10;62.40;;;;;;4955457;28;20142;-80
2022/06/02 05:24:27;;;;;;;7.40;5.05;;;23.90;62.90;;;;;;4957338;29;20027;-80
2022/06/02 05:27:11;;;;;;;6.03;5.40;;;23.80;63.30;;;;;;4957451;29;20078;-79
2022/06/02 05:29:49;;;;;;;5.43;4.90;;;23.80;62.90;;;;;;4958329;29;20023;-80
2022/06/02 05:32:42;;;;;;;6.63;4.90;;;23.80;62.80;;;;;;4956317;28;20023;-80
2022/06/02 05:35:23;;;;;;;7.53;5.45;;;23.80;62.60;;;;;;4958459;28;20023;-81
2022/06/02 05:38:13;;;;;;;6.80;5.22;;;23.60;63.40;;;;;;4958041;29;20027;-81
2022/06/02 05:40:54;;;;;;;6.82;5.28;;;23.60;63.70;;;;;;4952656;28;20086;-84
2022/06/02 05:43:40;;;;;;;7.82;5.40;;;23.80;63.40;;;;;;4939388;28;20087;-77
2022/06/02 05:46:12;;;;;;;6.55;5.38;;;24.00;63.00;;;;;;4949897;29;20122;-80
2022/06/02 05:48:50;;;;;;;8.52;5.68;;;23.90;63.20;;;;;;4948387;28;20027;-80
2022/06/02 05:51:38;;;;;;;8.18;5.25;;;24.10;63.10;;;;;;4937579;29;20411;-81
2022/06/02 05:54:22;;;;;;;6.80;5.53;;;24.30;62.90;;;;;;4946578;29;20034;-80
2022/06/02 05:57:20;;;;;;;5.93;5.32;;;24.50;62.90;;;;;;4940912;29;20128;-81
2022/06/02 06:00:05;;;;;;;8.13;5.63;;;24.70;62.90;;;;;;4938366;29;20118;-81
2022/06/02 06:02:42;;;;;;;6.20;5.35;;;24.80;62.90;;;;;;4949760;29;20442;-81
2022/06/02 06:05:27;;;;;;;7.30;5.53;;;25.00;62.50;;;;;;4956603;29;20381;-80
2022/06/02 06:08:14;;;;;;;8.80;6.05;;;25.00;62.50;;;;;;4946243;28;20483;-80
2022/06/02 06:11:11;;;;;;;6.80;5.05;;;25.10;62.60;;;;;;4954995;29;20066;-80
2022/06/02 06:13:39;;;;;;;5.90;5.20;;;25.30;62.70;;;;;;4950219;29;20476;-81
2022/06/02 06:16:14;;;;;;;5.70;4.95;;;25.20;62.60;;;;;;4957856;28;20419;-79
2022/06/02 06:18:55;;;;;;;6.43;4.93;;;25.10;63.30;;;;;;4950512;28;20110;-80
2022/06/02 06:21:31;;;;;;;;;;;24.80;63.40;;;;;;4960273;28;20457;-79
2022/06/02 06:24:10;;;;;;;6.00;4.70;;;24.60;63.70;;;;;;4973114;28;19968;-79
2022/06/02 06:26:52;;;;;;;8.75;5.22;;;24.50;64.00;;;;;;4942895;29;20430;-76
2022/06/02 06:29:44;;;;;;;6.68;4.78;;;24.70;64.00;;;;;;4944435;28;20378;-78
2022/06/02 06:32:36;;;;;;;5.70;4.65;;;25.10;63.60;;;;;;4945271;28;20026;-78
2022/06/02 06:35:31;;;;;;;6.95;4.82;;;25.60;62.50;;;;;;4959200;28;20027;-77
2022/06/02 06:38:06;;;;;;;6.60;4.35;;;25.80;62.10;;;;;;4938812;28;20031;-79
2022/06/02 06:41:10;;;;;;;4.75;4.18;;;26.00;61.80;;;;;;4951564;29;20039;-84
2022/06/02 06:43:46;;;;;;;5.13;4.05;;;26.00;61.70;;;;;;4934714;29;20027;-80
2022/06/02 06:46:37;;;;;;;6.72;4.00;;;26.10;61.80;;;;;;4981372;28;20027;-80
2022/06/02 06:49:24;;;;;;;5.03;4.07;;;25.80;61.10;;;;;;4955292;28;20019;-80
2022/06/02 06:52:10;;;;;;;6.28;4.10;;;25.80;61.70;;;;;;4946454;29;20031;-80
2022/06/02 06:55:03;;;;;;;4.80;3.95;;;25.90;61.40;;;;;;4936486;29;20483;-79
2022/06/02 06:57:48;;;;;;;6.43;4.10;;;25.90;61.40;;;;;;4945753;29;20486;-78
2022/06/02 07:00:35;;;;;;;5.28;3.90;;;26.10;61.50;;;;;;4962635;28;20046;-76
2022/06/02 07:03:34;;;;;;;6.35;4.00;;;26.40;61.20;;;;;;4959657;28;20027;-80
2022/06/02 07:06:08;;;;;;;5.80;3.78;;;26.40;60.70;;;;;;4954982;28;20027;-80
2022/06/02 07:08:39;;;;;;;5.57;4.10;;;26.60;60.90;;;;;;4952711;29;20031;-77
2022/06/02 07:14:33;;;;;;;6.40;3.80;;;26.70;60.00;;;;;;4956478;28;20051;-81
2022/06/02 07:17:03;;;;;;;6.22;4.03;;;26.80;60.10;;;;;;4956045;29;20027;-77
2022/06/02 07:19:41;;;;;;;6.20;3.75;;;26.80;59.70;;;;;;4954842;28;20039;-80
2022/06/02 07:22:27;;;;;;;4.93;3.90;;;26.70;59.50;;;;;;4970873;28;20028;-77
2022/06/02 07:25:06;;;;;;;5.80;3.72;;;26.90;59.60;;;;;;4956244;28;20027;-77
2022/06/02 07:27:37;;;;;;;4.95;3.50;;;27.00;59.50;;;;;;4954432;29;20035;-81
2022/06/02 07:30:18;;;;;;;4.07;3.60;;;27.00;59.10;;;;;;4970749;28;20398;-78
2022/06/02 07:33:03;;;;;;;6.18;3.78;;;27.20;59.30;;;;;;4956383;28;20019;-79
2022/06/02 07:35:37;;;;;;;6.38;3.80;;;27.40;59.60;;;;;;4954583;28;20414;-80
2022/06/02 07:38:22;;;;;;;5.85;3.63;;;27.60;59.70;;;;;;4954904;29;20019;-79
2022/06/02 07:41:15;;;;;;;4.25;3.40;;;28.00;59.90;;;;;;4955637;29;20031;-78
2022/06/02 07:44:22;;;;;;;5.90;3.85;;;28.00;58.60;;;;;;4955760;28;20027;-81
2022/06/02 07:47:10;;;;;;;4.20;3.13;;;28.00;59.50;;;;;;4954399;29;20034;-79
2022/06/02 07:49:54;;;;;;;4.43;3.30;;;27.90;58.70;;;;;;4954310;29;20058;-79
2022/06/02 07:52:20;;;;;;;4.15;2.90;;;28.00;58.40;;;;;;4955809;29;20031;-78
2022/06/02 07:55:13;;;;;;;4.30;3.13;;;28.40;58.70;;;;;;4954127;29;20229;-82
2022/06/02 07:58:12;;;;;;;4.78;3.28;;;28.50;57.80;;;;;;4955814;28;20098;-81
2022/06/02 08:00:46;;;;;;;3.50;2.70;;;28.30;58.00;;;;;;4955051;28;20040;-90
2022/06/02 08:03:43;;;;;;;3.75;2.60;;;28.20;57.70;;;;;;4954507;29;20054;-87
2022/06/02 08:06:25;;;;;;;5.13;3.20;;;27.50;57.30;;;;;;4954502;29;20118;-83
2022/06/02 08:09:31;;;;;;;5.15;2.97;;;27.50;58.20;;;;;;4954668;29;20399;-86
2022/06/02 08:12:35;;;;;;;5.85;2.90;;;27.50;58.40;;;;;;4954620;29;20034;-90
2022/06/02 08:18:45;;;;;;;4.60;3.00;;;28.20;58.20;;;;;;4957432;29;20034;-90
2022/06/02 08:21:45;;;;;;;5.53;3.03;;;28.90;57.30;;;;;;4942376;28;20477;-90
2022/06/02 08:28:01;;;;;;;4.18;2.95;;;29.70;56.10;;;;;;4860310;29;20092;-84
2022/06/02 08:31:04;;;;;;;4.55;2.97;;;29.90;56.40;;;;;;4844249;29;20470;-90
2022/06/02 08:33:54;;;;;;;4.78;3.10;;;30.00;55.00;;;;;;4923881;23;20103;-85
2022/06/02 08:36:48;;;;;;;4.05;2.80;;;29.90;55.40;;;;;;4937047;29;20027;-86
2022/06/02 08:39:46;;;;;;;5.40;2.85;;;30.00;55.10;;;;;;4936318;29;20064;-90
2022/06/02 08:42:51;;;;;;;6.03;3.05;;;30.30;54.70;;;;;;4859207;29;20077;-81
2022/06/02 08:45:31;;;;;;;4.00;2.97;;;30.40;55.10;;;;;;4859012;29;20466;-79
2022/06/02 08:48:03;;;;;;;4.30;3.03;;;30.00;55.50;;;;;;4859323;29;20033;-81
2022/06/02 08:51:06;;;;;;;4.30;3.20;;;30.20;56.30;;;;;;4858614;29;20026;-81
2022/06/02 08:54:07;;;;;;;5.35;2.80;;;30.40;55.90;;;;;;4859258;29;20074;-85
2022/06/02 08:57:05;;;;;;;4.07;2.83;;;29.90;55.70;;;;;;4788703;29;20065;-79
2022/06/02 08:59:52;;;;;;;5.45;3.15;;;29.70;56.50;;;;;;4803971;29;20035;-81
2022/06/02 09:02:30;;;;;;;4.60;2.70;;;29.60;56.80;;;;;;4803855;29;20039;-79
2022/06/02 09:05:28;;;;;;;4.35;2.60;;;29.60;57.60;;;;;;4788875;29;20076;-76
2022/06/02 09:08:27;;;;;;;4.45;2.90;;;29.60;56.60;;;;;;4803754;29;20099;-81
2022/06/02 09:11:17;;;;;;;5.25;2.90;;;29.70;56.60;;;;;;4804080;29;20023;-76
2022/06/02 09:14:13;;;;;;;5.10;2.50;;;29.60;56.70;;;;;;4803491;29;20073;-78
2022/06/02 09:16:47;;;;;;;5.03;2.55;;;29.80;56.50;;;;;;4804012;29;20322;-82
2022/06/02 09:19:28;;;;;;;5.45;2.75;;;29.80;56.20;;;;;;4823388;29;20094;-78
2022/06/02 09:22:02;;;;;;;5.47;2.80;;;29.60;56.00;;;;;;4855906;29;20034;-87
2022/06/02 09:24:40;;;;;;;5.32;2.22;;;29.80;56.30;;;;;;4855495;29;20521;-86
2022/06/02 09:27:34;;;;;;;4.18;2.70;;;29.90;55.90;;;;;;4840208;29;20022;-75
2022/06/02 09:30:03;;;;;;;5.07;3.00;;;30.00;55.80;;;;;;4824510;29;20029;-77
2022/06/02 09:33:33;;;;;;;5.68;2.78;;;30.20;56.20;;;;;;4903376;29;20046;-87
2022/06/02 09:36:27;;;;;;;4.50;2.97;;;30.40;55.50;;;;;;4929832;29;20031;-78
2022/06/02 09:39:01;;;;;;;4.28;2.70;;;30.50;55.60;;;;;;4934233;29;20027;-86
2022/06/02 09:41:51;;;;;;;3.70;2.38;;;30.70;54.70;;;;;;4934251;29;20031;-83
2022/06/02 09:44:30;;;;;;;5.20;2.58;;;30.70;55.50;;;;;;4938563;29;20455;-87
2022/06/02 09:47:25;;;;;;;3.97;2.55;;;30.50;55.20;;;;;;4937649;29;20174;-77
2022/06/02 09:50:10;;;;;;;3.55;2.53;;;30.10;56.00;;;;;;4937736;29;20019;-77
2022/06/02 09:53:08;;;;;;;4.03;2.80;;;30.10;55.60;;;;;;4938597;29;20336;-76
2022/06/02 09:56:10;;;;;;;3.55;2.72;;;30.40;55.10;;;;;;4937698;29;20030;-79
2022/06/02 09:58:51;;;;;;;4.65;2.58;;;30.20;55.20;;;;;;4938625;29;20522;-76
2022/06/02 10:01:44;;;;;;;5.28;3.08;;;30.10;55.30;;;;;;4933060;29;20046;-76
2022/06/02 10:04:28;;;;;;;4.53;2.70;;;30.10;55.70;;;;;;4879263;29;20029;-82
2022/06/02 10:07:09;;;;;;;4.50;2.80;;;30.60;56.00;;;;;;4880074;29;20513;-79
2022/06/02 10:09:37;;;;;;;4.35;2.50;;;30.90;53.40;;;;;;4879523;29;20065;-75
2022/06/02 10:15:33;;;;;;;4.03;2.95;;;31.00;54.00;;;;;;4879695;29;20131;-80
2022/06/02 10:18:20;;;;;;;5.65;3.03;;;30.80;55.10;;;;;;4879658;29;20033;-78
2022/06/02 10:21:09;;;;;;;4.60;3.08;;;30.60;54.10;;;;;;4879694;29;20041;-87
2022/06/02 10:23:48;;;;;;;4.45;3.10;;;30.30;54.50;;;;;;4879756;29;20048;-75
2022/06/02 10:26:20;;;;;;;4.97;3.90;;;30.40;55.50;;;;;;4879578;29;20033;-77
2022/06/02 10:29:04;;;;;;;5.18;3.53;;;30.20;55.10;;;;;;4879845;29;20025;-76
2022/06/02 10:31:32;;;;;;;7.47;3.75;;;30.20;55.60;;;;;;4879493;29;20125;-77
2022/06/02 10:34:28;;;;;;;6.35;3.75;;;30.50;57.20;;;;;;4879239;29;20052;-77
2022/06/02 10:37:15;;;;;;;4.35;3.10;;;30.80;55.10;;;;;;4879555;29;20410;-77
2022/06/02 10:39:53;;;;;;;5.68;3.20;;;30.80;54.80;;;;;;4879606;29;20060;-86
2022/06/02 10:42:31;;;;;;;4.25;3.40;;;30.90;54.70;;;;;;4916577;29;20032;-79
2022/06/02 10:45:21;;;;;;;5.43;3.20;;;30.90;54.20;;;;;;4901116;29;20032;-82
2022/06/02 10:48:10;;;;;;;9.30;2.97;;;30.60;54.10;;;;;;4916707;29;20443;-75
2022/06/02 10:51:18;;;;;;;5.60;2.85;;;31.00;53.90;;;;;;4914896;29;20054;-75
2022/06/02 10:54:03;;;;;;;3.97;2.88;;;31.80;53.30;;;;;;4878821;29;20037;-83
2022/06/02 10:57:04;;;;;;;3.70;2.95;;;32.10;53.60;;;;;;4879022;29;20096;-78
2022/06/02 10:59:48;;;;;;;;;;;31.30;53.80;;;;;;4879431;29;20037;-80
2022/06/02 11:02:32;;;;;;;4.70;3.50;;;31.00;53.90;;;;;;4878584;29;19912;-78
2022/06/02 11:05:26;;;;;;;4.65;2.95;;;30.70;54.70;;;;;;4878684;29;20074;-84
2022/06/02 11:08:14;;;;;;;4.45;2.70;;;30.90;54.30;;;;;;4878890;29;20025;-79
2022/06/02 11:11:01;;;;;;;5.40;3.10;;;30.80;54.50;;;;;;4877950;29;20033;-78
2022/06/02 11:13:44;;;;;;;3.58;2.67;;;30.60;54.60;;;;;;4878995;29;20036;-77
2022/06/02 11:16:52;;;;;;;5.35;3.08;;;31.00;54.10;;;;;;4878695;29;20037;-84
2022/06/02 11:19:51;;;;;;;3.50;2.60;;;31.30;53.40;;;;;;4878787;29;20032;-82
2022/06/02 11:22:46;;;;;;;3.75;2.60;;;31.40;54.00;;;;;;4878321;29;20133;-86
2022/06/02 11:25:30;;;;;;;4.72;2.70;;;31.70;53.60;;;;;;4878663;29;20053;-84
2022/06/02 11:28:37;;;;;;;4.85;2.60;;;31.50;53.30;;;;;;4878320;29;20061;-80
2022/06/02 11:31:05;;;;;;;5.22;2.47;;;31.50;52.80;;;;;;4903924;29;20455;-84
2022/06/02 11:34:09;;;;;;;3.60;2.40;;;31.40;53.50;;;;;;4935491;29;20469;-77
2022/06/02 11:37:14;;;;;;;3.67;2.50;;;31.80;53.00;;;;;;4937156;29;20038;-85
2022/06/02 11:39:55;;;;;;;3.95;2.47;;;31.90;53.30;;;;;;4923295;29;20032;-75
2022/06/02 11:42:53;;;;;;;3.30;2.38;;;31.60;52.20;;;;;;4935905;29;20459;-82
2022/06/02 11:45:50;;;;;;;4.00;2.38;;;31.50;51.50;;;;;;4936405;29;20476;-78
2022/06/02 11:48:35;;;;;;;2.90;2.20;;;31.70;51.30;;;;;;4922989;29;20036;-85
2022/06/02 11:51:25;;;;;;;3.47;2.40;;;31.70;51.30;;;;;;4919154;29;20459;-75
2022/06/02 11:53:57;;;;;;;3.58;2.60;;;32.10;51.40;;;;;;4936348;29;20023;-77
2022/06/02 11:56:37;;;;;;;4.75;1.83;;;32.10;50.70;;;;;;4936614;29;20016;-89
2022/06/02 11:59:21;;;;;;;3.00;2.00;;;31.90;50.30;;;;;;4936203;29;20024;-78
2022/06/02 12:01:49;;;;;;;4.88;2.40;;;31.80;50.60;;;;;;4936686;29;20406;-78
2022/06/02 12:04:56;;;;;;;3.70;1.95;;;31.60;50.70;;;;;;4935084;29;20016;-79
2022/06/02 12:07:24;;;;;;;3.30;2.00;;;31.30;50.30;;;;;;4877706;29;20076;-81
2022/06/02 12:09:53;;;;;;;3.72;2.00;;;31.10;51.50;;;;;;4877728;29;20031;-82
2022/06/02 12:12:33;;;;;;;5.03;2.03;;;31.30;51.70;;;;;;4878051;29;20096;-80
2022/06/02 12:15:02;;;;;;;3.33;1.88;;;31.40;51.20;;;;;;4878095;29;20041;-80
2022/06/02 12:17:46;;;;;;;3.50;1.95;;;31.40;51.90;;;;;;4878026;29;20067;-84
2022/06/02 12:20:43;;;;;;;3.90;1.98;;;31.50;51.90;;;;;;4877761;29;20253;-78
2022/06/02 12:23:24;;;;;;;3.92;1.90;;;31.30;51.10;;;;;;4877211;29;20037;-85
2022/06/02 12:26:00;;;;;;;2.80;1.70;;;31.50;52.10;;;;;;4877640;29;20025;-74
2022/06/02 12:28:36;;;;;;;3.15;2.00;;;31.60;50.40;;;;;;4877315;29;20122;-77
2022/06/02 12:31:20;;;;;;;4.45;1.65;;;31.70;49.80;;;;;;4877495;29;20025;-81
2022/06/02 12:33:55;;;;;;;3.25;1.80;;;31.60;49.10;;;;;;4877297;29;20049;-86
2022/06/02 12:36:51;;;;;;;3.10;1.75;;;31.90;49.50;;;;;;4877528;29;20055;-79
2022/06/02 12:39:54;;;;;;;3.25;1.63;;;32.00;49.70;;;;;;4935906;29;20042;-79
2022/06/02 12:42:40;;;;;;;3.03;1.60;;;32.10;49.40;;;;;;4934852;29;20035;-77
2022/06/02 12:45:33;;;;;;;2.35;1.55;;;32.30;48.80;;;;;;4935638;29;20389;-86
2022/06/02 12:48:33;;;;;;;2.78;1.55;;;32.20;49.30;;;;;;4935998;29;20479;-77
2022/06/02 12:51:31;;;;;;;4.20;1.57;;;32.10;48.30;;;;;;4934806;29;20020;-77
2022/06/02 12:54:34;;;;;;;3.35;1.80;;;32.10;48.50;;;;;;4935570;29;20032;-76
2022/06/02 12:57:06;;;;;;;2.95;1.50;;;31.90;47.90;;;;;;4935644;29;20086;-83
2022/06/02 12:59:43;;;;;;;3.13;1.58;;;32.20;48.30;;;;;;4935792;29;20434;-77
2022/06/02 13:02:34;;;;;;;2.50;1.40;;;32.10;47.10;;;;;;4934349;29;20097;-77
2022/06/02 13:05:18;;;;;;;2.60;1.55;;;32.50;48.00;;;;;;4934823;29;20424;-82
2022/06/02 13:08:06;;;;;;;5.10;1.70;;;32.30;47.90;;;;;;4935020;29;20112;-77
2022/06/02 13:10:36;;;;;;;2.50;1.60;;;32.20;47.90;;;;;;4934379;29;20040;-79
2022/06/02 13:13:20;;;;;;;2.75;1.45;;;32.10;47.50;;;;;;4935618;29;20019;-78
2022/06/02 13:16:17;;;;;;;3.05;1.40;;;32.20;47.50;;;;;;4935515;29;20036;-77
2022/06/02 13:18:45;;;;;;;2.60;1.40;;;32.30;48.10;;;;;;4938214;29;20485;-81
2022/06/02 13:21:48;;;;;;;4.68;1.50;;;32.00;46.50;;;;;;4937831;29;20083;-78
2022/06/02 13:24:36;;;;;;;3.22;1.70;;;31.80;47.00;;;;;;4922418;29;20454;-78
2022/06/02 13:27:23;;;;;;;3.22;1.60;;;31.90;47.90;;;;;;4939713;29;20051;-83
2022/06/02 13:30:26;;;;;;;3.17;1.80;;;31.90;47.10;;;;;;4939337;29;20411;-83
2022/06/02 13:33:10;;;;;;;2.50;1.52;;;31.80;48.50;;;;;;4935987;29;20111;-85
2022/06/02 13:36:09;;;;;;;3.33;1.45;;;31.50;47.20;;;;;;4938071;29;20023;-82
2022/06/02 13:38:41;;;;;;;3.03;1.50;;;31.70;47.90;;;;;;4938955;29;20035;-79
2022/06/02 13:41:25;;;;;;;3.33;1.85;;;32.10;48.20;;;;;;4937040;29;20174;-76
2022/06/02 13:44:28;;;;;;;3.15;1.70;;;32.60;47.60;;;;;;4921901;29;20023;-77
2022/06/02 13:47:15;;;;;;;2.70;1.60;;;32.80;48.10;;;;;;4939092;29;20030;-83
2022/06/02 13:50:03;;;;;;;2.78;1.60;;;32.70;46.80;;;;;;4937681;29;20039;-85
2022/06/02 13:53:01;;;;;;;3.15;1.60;;;32.50;46.50;;;;;;4938781;29;20023;-82
2022/06/02 13:58:51;;;;;;;2.55;1.50;;;32.90;47.30;;;;;;4938601;29;20082;-78
2022/06/02 14:01:19;;;;;;;3.47;1.40;;;33.00;46.70;;;;;;4938499;29;20063;-78
2022/06/02 14:04:23;;;;;;;5.13;1.60;;;32.50;46.00;;;;;;4937422;29;20031;-80
2022/06/02 14:07:24;;;;;;;4.82;1.50;;;32.40;46.10;;;;;;4921425;29;20106;-79
2022/06/02 14:10:17;;;;;;;2.42;1.50;;;32.60;45.70;;;;;;4938392;29;20043;-75
2022/06/02 14:13:02;;;;;;;3.15;1.40;;;32.60;46.60;;;;;;4938328;29;20055;-79
2022/06/02 14:16:00;;;;;;;2.45;1.40;;;32.30;45.10;;;;;;4938255;29;20024;-89
2022/06/02 14:18:44;;;;;;;2.58;1.60;;;32.40;45.70;;;;;;4938244;29;20019;-86
2022/06/02 14:21:39;;;;;;;2.60;1.38;;;32.50;45.30;;;;;;4937008;29;20038;-82
2022/06/02 14:24:11;;;;;;;2.90;1.50;;;32.50;45.60;;;;;;4879190;29;20384;-84
2022/06/02 14:26:45;;;;;;;2.85;1.45;;;32.50;45.20;;;;;;4879809;29;20425;-82
2022/06/02 14:29:28;;;;;;;2.67;1.52;;;32.40;45.40;;;;;;4879151;29;20084;-78
2022/06/02 14:32:12;;;;;;;2.70;1.58;;;32.70;45.50;;;;;;4879188;29;20037;-80
2022/06/02 14:35:05;;;;;;;3.88;1.70;;;32.90;46.60;;;;;;4879401;29;20037;-87
2022/06/02 14:37:42;;;;;;;5.70;1.63;;;33.00;46.20;;;;;;4879396;29;20445;-89
2022/06/02 14:40:26;;;;;;;2.70;1.67;;;33.00;45.40;;;;;;4879338;29;20040;-80
2022/06/02 14:43:04;;;;;;;4.10;1.70;;;32.70;45.60;;;;;;4879323;29;20072;-79
2022/06/02 14:46:06;;;;;;;8.93;1.75;;;32.40;45.40;;;;;;4879250;29;20116;-86
2022/06/02 14:48:38;;;;;;;5.20;1.60;;;32.30;45.60;;;;;;4879158;29;20037;-76
2022/06/02 14:51:19;;;;;;;3.75;1.80;;;32.20;45.70;;;;;;4879994;29;20032;-82
2022/06/02 14:54:03;;;;;;;6.50;2.45;;;32.10;45.80;;;;;;4879337;29;20044;-79
2022/06/02 14:56:56;;;;;;;4.50;1.83;;;32.00;45.80;;;;;;4878977;29;20036;-81
2022/06/02 14:59:42;;;;;;;3.63;1.65;;;32.20;46.40;;;;;;4880205;29;20029;-85
2022/06/02 15:02:53;;;;;;;4.28;2.10;;;32.50;46.00;;;;;;4937133;29;20171;-77
2022/06/02 15:05:27;;;;;;;;;;;32.70;46.30;;;;;;4937447;29;20090;-82
2022/06/02 15:08:23;;;;;;;3.10;1.70;;;32.80;47.10;;;;;;4935947;29;19926;-76
2022/06/02 15:11:01;;;;;;;4.88;1.67;;;32.90;45.90;;;;;;4936049;29;20079;-80
2022/06/02 15:13:50;;;;;;;3.50;1.85;;;32.80;45.60;;;;;;4936115;29;20024;-88
2022/06/02 15:16:38;;;;;;;2.78;1.80;;;32.20;46.00;;;;;;4937561;29;20090;-78
2022/06/02 15:19:43;;;;;;;4.35;1.73;;;32.10;46.70;;;;;;4937198;29;20018;-81
2022/06/02 15:22:29;;;;;;;3.00;1.70;;;32.30;46.80;;;;;;4933061;29;20066;-87